AirNav   Jet Aviation Boston
 
 1170 users online  

CL35 Warner Springs Gliderport
Warner Springs, California, USA

GOING TO WARNER SPRINGS?


FAA INFORMATION EFFECTIVE 24 MAY 2018

Location

FAA Identifier: CL35
Lat/Long: 33-17-04.2100N / 116-40-10.7650W
33-17.070167N / 116-40.179417W
33.2845028 / -116.6696569
(estimated)
Elevation: 2880 ft. / 878 m (estimated)
Variation: 13E (1985)
From city: 2 miles E of WARNER SPRINGS, CA
Time zone: UTC -7 (UTC -8 during Standard Time)
Zip code: 92086

Gliderport Operations

Gliderport use: Private use. Permission required prior to landing
Activation date: 10/1984
Control tower: no
ARTCC: LOS ANGELES CENTER
FSS: SAN DIEGO FLIGHT SERVICE STATION
Attendance: 0900-1700
Wind indicator: yes
Segmented circle: yes
Landing fee: yes

Gliderport Communications

UNICOM: 122.8
WX AWOS-3 at L08 (18 nm E): 126.575 (760-767-3308)
WX ASOS at RNM (19 nm SW): 132.025 (760-789-0736)

Nearby radio navigation aids

VOR radial/distance  VOR name  Freq  Var
JLIr319/9.6JULIAN VORTAC114.0015E
TRMr218/32.8THERMAL VORTAC116.2013E
PSPr186/37.1PALM SPRINGS VORTAC115.5013E
OCNr071/37.6OCEANSIDE VORTAC115.3015E
HDFr125/(39.2)HOMELAND VOR113.4014E

Gliderport Services

Runway Information

Runway 8/26

Dimensions: 3500 x 70 ft. / 1067 x 21 m
Surface: asphalt
RUNWAY 8  RUNWAY 26
Latitude: 33-17.060333N33-17.080000N
Longitude: 116-40.522667W116-39.836167W
Elevation: 2873.0 ft.2914.0 ft.
Traffic pattern: leftleft
Obstructions: none200 ft. hill, 5200 ft. from runway

Gliderport Ownership and Management from official FAA records

Ownership: Privately-owned
Owner: WARNER SPRINGS RANCH RESORT, LLC
31930 HWY 79
WARNER SPRINGS, CA 92086
Phone 760-782-4200
SKY SAILING 31930 HWY 79.
Manager: BRET WILLAT
SKY SAILING 31930 HWY 79
WARNER SPRINGS, CA 92086
Phone 760-782-0404
LEASEE.

Gliderport Operational Statistics

Aircraft based on the field: 80
Single engine airplanes: 10
Gliders airplanes: 70
    

Instrument Procedures

There are no published instrument procedures at CL35.

Some nearby airports with instrument procedures:

L08 - Borrego Valley Airport (18 nm E)
KRNM - Ramona Airport (19 nm SW)
F70 - French Valley Airport (29 nm NW)
L18 - Fallbrook Community Airpark (29 nm W)
KSEE - Gillespie Field Airport (31 nm SW)
 
Loc | Ops | Rwys | IFR | FBO | Links
Com | Nav | Svcs | Stats | Notes

AirNav Hotels Sweepstakes
 
Area around CL35 (Warner Springs Gliderport)
 
Road maps at: MapQuest Bing Google
 
Aerial photo
WARNING: Photo may not be current or correct
Aerial photo of CL35 (Warner Springs Gliderport)
Photo by Steve Lupinacci
Photo taken 27-May-2008

Do you have a better or more recent aerial photo of Warner Springs Gliderport that you would like to share? If so, please send us your photo.

 
Sectional chart

 
Airport distance calculator
Flying to Warner Springs Gliderport? Find the distance to fly.

From to CL35

Sunrise and sunset
Times for 25-May-2018
 Local
(UTC-7)
 Zulu
(UTC)
Morning civil twilight05:1412:14
Sunrise05:4212:42
Sunset19:4502:45
Evening civil twilight20:1303:13

Current date and time
Zulu (UTC)  25-May-2018 20:25:03
Local (UTC-7)  25-May-2018 13:25:03
 
METAR
KRNM 
20nm SW 
251953Z 28011G16KT 10SM SCT034 21/10 A3010 RMK AO2 SLP184 T02060100
KF70 
29nm NW 
251955Z AUTO 26006KT 10SM SCT048 21/08 A3009 RMK AO1
KL18 
29nm W 
251955Z AUTO 23011G17KT 10SM BKN035 BKN043 20/10 A3010 RMK AO2
KSEE 
32nm SW 
251947Z 27009G18KT 10SM BKN042 21/11 A3010
KCRQ 
32nm W 
251953Z 29010G15KT 10SM CLR 18/11 A3011 RMK AO2 SLP194 T01780111
KTRM 
33nm NE 
251952Z AUTO 30008KT 10SM CLR 31/04 A2989 RMK AO2 SLP123 T03110044
KPSP 
33nm N 
251953Z 30011G23KT 10SM CLR 29/04 A2994 RMK AO2 SLP134 T02940044
KNFG 
33nm W 
251955Z 24012G20KT 10SM SCT047 21/10 A3010 RMK AO2 SLP192 T02060100
KNKX 
34nm SW 
251955Z 31011KT 10SM SCT026 OVC031 22/11 A3012 RMK AO2 SLP194 T02220111 $
KOKB 
34nm W 
251952Z AUTO 27015KT 10SM CLR 21/10 A3011 RMK AO2 SLP195 T02110100
TAF
KCRQ 
32nm W 
251734Z 2518/2618 26011KT P6SM SCT025 SCT040 FM260300 VRB04KT P6SM SCT025 BKN035 FM260900 VRB04KT P6SM OVC020 TEMPO 2612/2616 5SM -DZ BKN015
KTRM 
33nm NE 
251734Z 2518/2618 33011KT P6SM SKC FM252100 31012G20KT P6SM SKC FM260100 33018G28KT P6SM SKC FM261300 32012G20KT P6SM SKC
KPSP 
33nm N 
251734Z 2518/2618 32012G20KT P6SM SKC FM252200 32020G30KT P6SM SKC FM260800 32012G20KT P6SM SKC FM261200 29006KT P6SM SKC FM261700 32015G25KT P6SM SKC
KNFG 
33nm W 
2515/2615 24007KT 9999 SCT025 BKN045 QNH3000INS TEMPO 2515/2520 SCT035 TEMPO 2520/2602 25010G18KT FM260430 VRB05KT 9999 BKN020 OVC035 QNH2998INS TEMPO 2505/2611 BKN025 T20/2521Z T13/2613Z
KNKX 
34nm SW 
2515/2615 29008KT 9999 SCT020 OVC040 QNH3001INS TEMPO 2515/2520 SCT035 TEMPO 2520/2602 28011G18KT FM260430 VRB05KT 9999 BKN020 OVC035 QNH2999INS TEMPO 2605/2611 OVC025 T20/2521Z T14/2613Z
NOTAMs
Click for the latest NOTAMs
NOTAMs are issued by the DoD/FAA and will open in a separate window not controlled by AirNav.

 

 
 

Would you like to see your business listed on this page?

 If your business provides an interesting product or service to pilots, flight crews, aircraft, or users of the Warner Springs Gliderport, you should consider listing it here.  To start the listing process, click on the button below
 
Add a business
 

Other Pages about Warner Springs Gliderport

www.agcsc.org/warner_springs_info.html
 
Update a link
 
Copyright © AirNav, LLC. All rights reserved. Privacy Policy  Contact